Time;durP1;ratioP1;P1;durP2;ratioP2;P2;SDS_P1;SDS_P2;PMS_P1;PMS_P2;Temp;Humidity;BMP_temperature;BMP_pressure;BME280_temperature;BME280_humidity;BME280_pressure;Samples;Min_cycle;Max_cycle;Signal;HPM_P1;HPM_P2
2021/07/22 00:01:28;;;;;;;4.00;3.80;;;25.00;62.00;;;;;;5056367;28;20413;-25
2021/07/22 00:03:54;;;;;;;5.07;4.68;;;25.00;61.90;;;;;;5038371;28;20021;-28
2021/07/22 00:06:20;;;;;;;4.38;4.07;;;25.00;61.80;;;;;;5068961;28;20035;-29
2021/07/22 00:08:45;;;;;;;3.80;3.60;;;25.00;61.40;;;;;;5061371;28;20032;-26
2021/07/22 00:11:11;;;;;;;3.88;3.67;;;25.00;61.50;;;;;;5056040;28;20548;-28
2021/07/22 00:13:37;;;;;;;4.00;3.70;;;25.00;61.50;;;;;;5055563;28;20021;-28
2021/07/22 00:16:02;;;;;;;3.97;3.78;;;24.90;62.60;;;;;;5061604;28;20028;-28
2021/07/22 00:18:29;;;;;;;3.50;3.30;;;24.90;61.70;;;;;;5067659;28;20028;-31
2021/07/22 00:20:55;;;;;;;4.38;4.18;;;24.90;61.70;;;;;;5065926;28;20032;-26
2021/07/22 00:23:21;;;;;;;4.07;3.80;;;24.90;62.80;;;;;;5065670;28;20028;-30
2021/07/22 00:25:46;;;;;;;4.25;4.05;;;24.90;62.40;;;;;;5055189;28;20072;-30
2021/07/22 00:28:12;;;;;;;4.20;4.00;;;24.90;61.60;;;;;;5069533;28;20484;-27
2021/07/22 00:30:38;;;;;;;3.90;3.55;;;24.90;61.40;;;;;;5067784;28;20520;-29
2021/07/22 00:33:04;;;;;;;4.22;3.92;;;24.90;61.60;;;;;;5041179;28;20029;-28
2021/07/22 00:35:29;;;;;;;4.22;3.95;;;24.80;61.30;;;;;;5057406;28;20401;-28
2021/07/22 00:37:55;;;;;;;4.53;4.22;;;24.80;61.50;;;;;;5064802;28;20020;-28
2021/07/22 00:40:21;;;;;;;3.67;3.47;;;24.70;61.50;;;;;;5053226;28;20401;-25
2021/07/22 00:42:59;;;;;;;3.50;3.30;;;24.70;62.00;;;;;;5056448;28;20029;-33
2021/07/22 00:45:25;;;;;;;3.72;3.53;;;24.80;61.70;;;;;;5066984;28;20103;-25
2021/07/22 00:47:51;;;;;;;3.90;3.60;;;24.80;61.50;;;;;;5060467;28;20029;-26
2021/07/22 00:50:17;;;;;;;4.28;3.88;;;24.70;61.90;;;;;;5039531;28;20056;-27
2021/07/22 00:52:42;;;;;;;3.88;3.58;;;24.70;62.00;;;;;;5055832;28;20021;-26
2021/07/22 00:55:08;;;;;;;4.40;4.10;;;24.70;61.80;;;;;;5054098;28;20074;-27
2021/07/22 00:57:34;;;;;;;4.32;4.10;;;24.70;61.80;;;;;;5056466;28;20024;-27
2021/07/22 00:59:59;;;;;;;4.20;3.90;;;24.70;61.80;;;;;;5062710;28;20435;-31
2021/07/22 01:02:25;;;;;;;4.10;3.80;;;24.70;61.90;;;;;;5058320;28;20047;-28
2021/07/22 01:04:50;;;;;;;4.45;4.05;;;24.60;62.10;;;;;;5066042;28;20034;-31
2021/07/22 01:07:16;;;;;;;4.35;4.15;;;24.60;62.40;;;;;;5069441;28;20067;-30
2021/07/22 01:09:41;;;;;;;4.30;3.90;;;24.60;61.90;;;;;;5067125;28;20021;-35
2021/07/22 01:12:07;;;;;;;4.38;4.18;;;24.60;62.20;;;;;;5065303;28;20048;-27
2021/07/22 01:14:32;;;;;;;4.22;4.03;;;24.60;62.50;;;;;;5065421;28;20021;-29
2021/07/22 01:16:58;;;;;;;4.13;3.88;;;24.50;62.70;;;;;;5067639;28;20037;-29
2021/07/22 01:19:23;;;;;;;5.95;4.00;;;24.60;62.50;;;;;;5053123;28;20035;-29
2021/07/22 01:21:49;;;;;;;3.92;3.72;;;24.50;63.70;;;;;;5057556;28;20021;-28
2021/07/22 01:24:15;;;;;;;4.07;3.78;;;24.50;62.70;;;;;;5060941;28;20563;-25
2021/07/22 01:26:40;;;;;;;4.13;3.80;;;24.50;62.90;;;;;;5060872;28;20033;-27
2021/07/22 01:29:06;;;;;;;3.90;3.70;;;24.50;62.90;;;;;;5060587;28;20024;-26
2021/07/22 01:31:32;;;;;;;4.10;3.90;;;24.50;62.90;;;;;;5057946;28;20037;-31
2021/07/22 01:33:57;;;;;;;3.88;3.67;;;24.50;62.80;;;;;;5058130;28;20393;-27
2021/07/22 01:36:23;;;;;;;4.35;4.15;;;24.50;63.70;;;;;;5066460;28;20025;-27
2021/07/22 01:38:51;;;;;;;4.53;4.22;;;24.50;62.70;;;;;;5068828;28;20389;-26
2021/07/22 01:41:17;;;;;;;4.45;4.07;;;24.40;62.90;;;;;;5067192;28;20051;-30
2021/07/22 01:43:42;;;;;;;4.05;3.75;;;24.40;63.20;;;;;;5064731;28;20485;-28
2021/07/22 01:46:08;;;;;;;4.22;3.88;;;24.40;63.30;;;;;;5068658;28;20071;-27
2021/07/22 01:48:34;;;;;;;3.92;3.72;;;24.40;63.10;;;;;;5070834;28;20032;-25
2021/07/22 01:50:59;;;;;;;3.55;3.35;;;24.40;63.30;;;;;;5068355;28;20448;-27
2021/07/22 01:53:25;;;;;;;3.70;3.50;;;24.40;63.30;;;;;;5068750;28;20051;-30
2021/07/22 01:55:50;;;;;;;6.13;3.53;;;24.40;63.40;;;;;;5071762;28;20032;-26
2021/07/22 01:58:16;;;;;;;4.50;3.72;;;24.40;63.50;;;;;;5038419;28;20032;-27
2021/07/22 02:00:41;;;;;;;4.85;3.40;;;24.40;64.30;;;;;;5059573;28;20052;-28
2021/07/22 02:03:07;;;;;;;3.72;3.53;;;24.30;63.50;;;;;;5060363;28;20371;-31
2021/07/22 02:05:32;;;;;;;4.18;3.88;;;24.30;64.50;;;;;;5059850;28;20040;-32
2021/07/22 02:07:58;;;;;;;4.05;3.80;;;24.30;63.90;;;;;;5060052;28;20031;-24
2021/07/22 02:10:24;;;;;;;4.60;4.20;;;24.30;64.00;;;;;;5056046;28;20124;-29
2021/07/22 02:12:50;;;;;;;4.30;3.90;;;24.30;64.90;;;;;;5058669;28;20033;-25
2021/07/22 02:15:15;;;;;;;4.10;3.80;;;24.30;63.80;;;;;;5060205;28;20035;-27
2021/07/22 02:17:41;;;;;;;3.85;3.65;;;24.30;63.70;;;;;;5059882;28;20021;-27
2021/07/22 02:20:07;;;;;;;6.50;3.70;;;24.40;63.70;;;;;;5059748;28;20541;-26
2021/07/22 02:22:32;;;;;;;3.83;3.58;;;24.30;64.00;;;;;;5057497;28;20033;-28
2021/07/22 02:24:58;;;;;;;3.92;3.72;;;24.30;64.70;;;;;;5057284;28;20048;-26
2021/07/22 02:27:23;;;;;;;3.55;3.28;;;24.30;64.20;;;;;;5059911;28;20039;-30
2021/07/22 02:29:49;;;;;;;3.90;3.63;;;24.20;64.20;;;;;;5056940;28;20486;-27
2021/07/22 02:32:15;;;;;;;4.47;4.10;;;24.20;64.70;;;;;;5058888;28;20095;-28
2021/07/22 02:34:40;;;;;;;3.72;3.53;;;24.10;64.40;;;;;;5056250;28;20032;-26
2021/07/22 02:37:06;;;;;;;3.70;3.40;;;24.10;64.70;;;;;;5059175;28;20032;-30
2021/07/22 02:39:31;;;;;;;4.05;3.70;;;24.10;64.90;;;;;;5069877;28;20111;-27
2021/07/22 02:41:57;;;;;;;4.57;4.28;;;24.10;64.70;;;;;;5062171;28;20473;-26
2021/07/22 02:44:22;;;;;;;3.95;3.63;;;24.00;64.80;;;;;;5059330;28;20112;-25
2021/07/22 02:46:48;;;;;;;4.68;4.28;;;24.00;65.00;;;;;;5058953;28;20389;-29
2021/07/22 02:49:14;;;;;;;4.30;4.00;;;23.90;65.50;;;;;;5055345;28;20053;-25
2021/07/22 02:51:39;;;;;;;4.65;4.25;;;24.00;65.40;;;;;;5058686;28;20446;-25
2021/07/22 02:54:05;;;;;;;4.10;3.80;;;24.00;65.40;;;;;;5059339;28;20100;-26
2021/07/22 02:56:31;;;;;;;4.45;4.10;;;24.00;65.50;;;;;;5059381;28;20489;-26
2021/07/22 02:58:56;;;;;;;4.63;4.22;;;23.90;65.70;;;;;;5064495;28;20032;-32
2021/07/22 03:01:22;;;;;;;4.30;4.00;;;23.90;66.10;;;;;;5071811;28;20067;-31
2021/07/22 03:03:47;;;;;;;4.78;4.32;;;23.90;66.10;;;;;;5069694;28;20131;-27
2021/07/22 03:06:14;;;;;;;4.32;4.03;;;23.90;66.20;;;;;;5067344;28;20037;-25
2021/07/22 03:08:40;;;;;;;4.30;3.90;;;23.90;66.10;;;;;;5067283;28;20043;-28
2021/07/22 03:11:08;;;;;;;4.10;3.90;;;23.90;66.90;;;;;;5066328;28;20061;-29
2021/07/22 03:13:35;;;;;;;4.10;3.90;;;23.80;66.50;;;;;;5038145;28;20054;-28
2021/07/22 03:16:00;;;;;;;5.25;4.93;;;23.80;67.40;;;;;;5070042;28;20032;-26
2021/07/22 03:18:26;;;;;;;4.65;4.28;;;23.70;66.80;;;;;;5050253;28;20029;-27
2021/07/22 03:20:52;;;;;;;4.72;4.43;;;23.70;67.00;;;;;;5066936;28;20386;-29
2021/07/22 03:23:17;;;;;;;4.82;4.43;;;23.70;67.20;;;;;;5066630;28;20029;-29
2021/07/22 03:25:43;;;;;;;4.45;4.20;;;23.60;67.10;;;;;;5057443;28;20115;-28
2021/07/22 03:28:09;;;;;;;4.18;3.90;;;23.60;67.10;;;;;;5055617;28;20024;-27
2021/07/22 03:30:34;;;;;;;4.63;4.32;;;23.60;67.30;;;;;;5057810;28;20029;-29
2021/07/22 03:33:01;;;;;;;5.20;4.80;;;23.70;66.90;;;;;;5058305;28;20021;-31
2021/07/22 03:35:27;;;;;;;4.68;4.38;;;23.70;67.00;;;;;;5058661;28;20032;-29
2021/07/22 03:37:52;;;;;;;4.25;4.00;;;23.60;67.10;;;;;;5055487;28;20025;-32
2021/07/22 03:40:18;;;;;;;4.47;4.18;;;23.60;67.00;;;;;;5071267;28;20029;-25
2021/07/22 03:42:43;;;;;;;4.20;4.00;;;23.60;66.90;;;;;;5068792;28;20720;-28
2021/07/22 03:45:10;;;;;;;4.13;3.90;;;23.60;67.10;;;;;;5066225;28;20478;-27
2021/07/22 03:47:35;;;;;;;5.03;4.78;;;23.50;67.10;;;;;;5066118;28;20048;-33
2021/07/22 03:50:02;;;;;;;4.60;4.30;;;23.60;67.20;;;;;;5066526;28;20068;-27
2021/07/22 03:52:28;;;;;;;4.60;4.30;;;23.60;67.40;;;;;;5069727;28;20021;-26
2021/07/22 03:54:53;;;;;;;4.75;4.45;;;23.50;67.50;;;;;;5064111;28;20074;-26
2021/07/22 03:57:19;;;;;;;5.15;4.75;;;23.50;67.50;;;;;;5067253;28;20028;-24
2021/07/22 03:59:44;;;;;;;4.20;3.90;;;23.50;67.50;;;;;;5062431;28;20605;-25
2021/07/22 04:02:10;;;;;;;4.57;4.38;;;23.40;67.50;;;;;;5057584;28;20028;-31
2021/07/22 04:04:36;;;;;;;4.45;4.15;;;23.40;67.80;;;;;;5068099;28;20119;-30
2021/07/22 04:07:01;;;;;;;4.47;4.07;;;23.40;67.70;;;;;;5068975;28;20026;-29
2021/07/22 04:09:27;;;;;;;4.88;4.47;;;23.40;67.50;;;;;;5067882;28;20033;-27
2021/07/22 04:11:52;;;;;;;4.57;4.30;;;23.40;67.60;;;;;;5065979;28;20047;-25
2021/07/22 04:14:18;;;;;;;4.05;3.85;;;23.40;67.60;;;;;;5066091;28;20389;-29
2021/07/22 04:16:45;;;;;;;5.15;4.50;;;23.70;67.80;;;;;;5067399;28;20065;-28
2021/07/22 04:19:10;;;;;;;4.00;3.80;;;24.10;65.90;;;;;;5069235;28;20047;-25
2021/07/22 04:21:36;;;;;;;3.75;3.55;;;23.90;65.60;;;;;;5043798;28;20021;-26
2021/07/22 04:24:01;;;;;;;4.53;4.07;;;23.70;65.90;;;;;;5063924;28;20030;-25
2021/07/22 04:26:27;;;;;;;4.65;4.35;;;23.60;66.40;;;;;;5065984;28;20453;-26
2021/07/22 04:28:52;;;;;;;4.47;4.15;;;23.40;67.00;;;;;;5066026;28;20021;-31
2021/07/22 04:31:18;;;;;;;5.05;4.68;;;23.40;67.30;;;;;;5069586;28;20110;-25
2021/07/22 04:33:50;;;;;;;4.88;4.47;;;23.30;67.60;;;;;;5056778;28;20027;-26
2021/07/22 04:36:15;;;;;;;4.50;4.10;;;23.30;67.80;;;;;;5050561;28;20025;-29
2021/07/22 04:38:42;;;;;;;4.40;4.00;;;23.30;67.80;;;;;;5062301;28;20036;-29
2021/07/22 04:41:08;;;;;;;5.18;4.63;;;23.30;67.90;;;;;;5057375;28;20034;-28
2021/07/22 04:43:33;;;;;;;4.88;4.50;;;23.30;67.70;;;;;;5054329;28;20056;-27
2021/07/22 04:46:02;;;;;;;4.97;4.68;;;23.20;68.00;;;;;;5055007;28;20068;-30
2021/07/22 04:48:29;;;;;;;4.80;4.35;;;23.10;68.20;;;;;;5039010;28;20116;-24
2021/07/22 04:50:54;;;;;;;4.82;4.47;;;23.10;68.40;;;;;;5057363;28;20032;-31
2021/07/22 04:53:20;;;;;;;5.47;5.10;;;23.00;68.70;;;;;;5057338;28;20486;-25
2021/07/22 04:55:45;;;;;;;4.72;4.40;;;22.90;69.00;;;;;;5056573;28;20440;-26
2021/07/22 04:58:11;;;;;;;5.13;4.82;;;22.90;69.20;;;;;;5058013;28;20039;-27
2021/07/22 05:00:37;;;;;;;4.53;4.25;;;23.00;69.20;;;;;;5062423;28;20041;-27
2021/07/22 05:03:02;;;;;;;5.60;5.20;;;23.00;69.30;;;;;;5062220;28;20067;-25
2021/07/22 05:05:29;;;;;;;4.47;4.28;;;22.90;69.40;;;;;;5067604;28;20036;-28
2021/07/22 05:07:54;;;;;;;4.82;4.53;;;23.10;68.90;;;;;;5072845;28;20029;-26
2021/07/22 05:10:20;;;;;;;4.85;4.38;;;23.10;68.90;;;;;;5079834;28;20090;-35
2021/07/22 05:12:45;;;;;;;5.35;4.82;;;23.00;69.20;;;;;;5073023;28;20059;-31
2021/07/22 05:15:11;;;;;;;5.22;4.90;;;22.90;69.90;;;;;;5071532;28;20020;-32
2021/07/22 05:17:37;;;;;;;5.10;4.60;;;22.80;70.20;;;;;;5072673;28;20469;-29
2021/07/22 05:20:04;;;;;;;5.57;5.18;;;22.80;70.40;;;;;;5071519;28;20029;-36
2021/07/22 05:22:29;;;;;;;5.03;4.63;;;22.80;70.70;;;;;;5074278;28;20059;-28
2021/07/22 05:24:55;;;;;;;5.18;4.78;;;22.80;70.80;;;;;;5075976;28;20120;-29
2021/07/22 05:27:20;;;;;;;6.13;5.63;;;22.80;70.80;;;;;;5075625;28;20028;-30
2021/07/22 05:29:46;;;;;;;5.93;4.90;;;22.80;71.00;;;;;;5071346;28;20024;-29
2021/07/22 05:32:15;;;;;;;5.30;5.00;;;22.80;71.20;;;;;;5071735;28;20108;-33
2021/07/22 05:34:40;;;;;;;5.45;4.95;;;22.70;71.40;;;;;;5071219;28;20399;-28
2021/07/22 05:37:10;;;;;;;5.05;4.75;;;22.70;71.20;;;;;;5071468;28;20131;-27
2021/07/22 05:39:36;;;;;;;5.40;4.97;;;22.70;71.30;;;;;;5076078;28;20100;-29
2021/07/22 05:42:03;;;;;;;5.03;4.72;;;22.70;71.80;;;;;;5077142;28;20111;-30
2021/07/22 05:44:28;;;;;;;6.40;5.80;;;22.70;72.00;;;;;;5057348;28;20028;-29
2021/07/22 05:46:54;;;;;;;5.35;5.05;;;22.60;72.30;;;;;;5072263;28;20032;-29
2021/07/22 05:49:19;;;;;;;6.65;5.38;;;22.70;71.80;;;;;;5072480;28;20049;-31
2021/07/22 05:51:45;;;;;;;5.53;5.10;;;22.70;71.90;;;;;;5078738;28;20020;-32
2021/07/22 05:54:11;;;;;;;9.20;5.53;;;22.70;72.10;;;;;;5079589;28;20020;-28
2021/07/22 05:56:36;;;;;;;5.05;4.63;;;22.70;72.30;;;;;;5066663;28;20060;-26
2021/07/22 05:59:02;;;;;;;5.90;5.40;;;22.70;72.40;;;;;;5065841;28;20049;-26
2021/07/22 06:01:28;;;;;;;6.30;5.68;;;22.70;72.50;;;;;;5072935;28;20107;-26
2021/07/22 06:03:53;;;;;;;5.82;5.32;;;22.70;72.50;;;;;;5071911;28;20032;-29
2021/07/22 06:06:19;;;;;;;5.13;4.68;;;22.70;72.50;;;;;;5073860;28;20040;-28
2021/07/22 06:08:44;;;;;;;5.63;5.00;;;22.70;73.20;;;;;;5070289;28;20101;-26
2021/07/22 06:11:12;;;;;;;5.47;5.00;;;22.70;72.50;;;;;;5077358;28;20050;-28
2021/07/22 06:13:37;;;;;;;6.15;5.75;;;22.70;72.40;;;;;;5080378;28;20050;-30
2021/07/22 06:16:08;;;;;;;6.78;5.00;;;22.70;72.30;;;;;;5081693;28;20530;-25
2021/07/22 06:18:34;;;;;;;5.93;5.57;;;22.70;72.30;;;;;;5074438;28;20036;-27
2021/07/22 06:20:59;;;;;;;5.85;5.43;;;22.70;72.20;;;;;;4707681;28;10000536;-32
2021/07/22 06:23:25;;;;;;;6.57;5.55;;;22.80;72.00;;;;;;5058490;28;20033;-31
2021/07/22 06:26:00;;;;;;;5.78;5.38;;;22.80;71.70;;;;;;5055254;28;20045;-31
2021/07/22 06:28:26;;;;;;;6.18;5.60;;;22.80;71.60;;;;;;5058361;28;20075;-32
2021/07/22 06:30:52;;;;;;;5.75;5.20;;;22.80;71.50;;;;;;5035817;28;20432;-31
2021/07/22 06:33:17;;;;;;;5.68;5.03;;;22.90;72.40;;;;;;5053581;28;20041;-26
2021/07/22 06:35:43;;;;;;;5.68;5.18;;;22.80;71.70;;;;;;5055768;28;20383;-26
2021/07/22 06:38:09;;;;;;;6.07;5.57;;;22.90;71.70;;;;;;5056472;28;20035;-25
2021/07/22 06:40:35;;;;;;;6.47;5.90;;;22.90;71.60;;;;;;5069826;28;20086;-29
2021/07/22 06:43:01;;;;;;;6.30;5.78;;;23.00;71.50;;;;;;5069986;28;20028;-27
2021/07/22 06:45:26;;;;;;;5.75;5.22;;;23.00;71.50;;;;;;5057746;28;20110;-31
2021/07/22 06:47:52;;;;;;;6.78;5.95;;;23.00;71.40;;;;;;5057195;28;20105;-26
2021/07/22 06:50:17;;;;;;;6.53;6.03;;;23.10;71.00;;;;;;5055571;28;20047;-32
2021/07/22 06:52:43;;;;;;;9.05;6.25;;;23.10;70.60;;;;;;5057605;28;20529;-27
2021/07/22 06:55:09;;;;;;;7.22;5.82;;;23.10;70.50;;;;;;5069772;28;20025;-30
2021/07/22 06:57:35;;;;;;;6.63;5.88;;;23.20;70.30;;;;;;5068181;28;20036;-30
2021/07/22 07:00:00;;;;;;;7.35;6.28;;;23.30;69.40;;;;;;5060714;28;20482;-34
2021/07/22 07:02:27;;;;;;;5.70;5.30;;;23.40;69.70;;;;;;5058791;28;20033;-28
2021/07/22 07:04:52;;;;;;;6.18;5.68;;;23.40;68.80;;;;;;5057956;28;20032;-28
2021/07/22 07:07:19;;;;;;;6.30;5.72;;;23.50;68.30;;;;;;5054156;28;20033;-25
2021/07/22 07:09:45;;;;;;;6.68;5.95;;;23.40;68.50;;;;;;5059031;28;20033;-35
2021/07/22 07:12:10;;;;;;;6.93;6.32;;;23.30;68.90;;;;;;5059463;28;20056;-29
2021/07/22 07:14:36;;;;;;;7.85;7.03;;;23.30;69.30;;;;;;5054925;28;20143;-26
2021/07/22 07:17:03;;;;;;;6.63;5.88;;;23.30;69.30;;;;;;5054715;28;20029;-29
2021/07/22 07:19:28;;;;;;;6.32;5.82;;;23.30;69.70;;;;;;5061960;28;20036;-29
2021/07/22 07:21:54;;;;;;;7.75;6.05;;;23.30;69.90;;;;;;5071727;28;20512;-33
2021/07/22 07:24:19;;;;;;;6.95;6.35;;;23.30;70.90;;;;;;5067542;28;20032;-30
2021/07/22 07:26:45;;;;;;;7.15;6.10;;;23.30;70.30;;;;;;5066066;28;20063;-30
2021/07/22 07:29:10;;;;;;;7.03;5.97;;;23.30;70.10;;;;;;5065639;28;20429;-31
2021/07/22 07:31:38;;;;;;;7.57;5.93;;;23.40;69.80;;;;;;5070534;28;20037;-25
2021/07/22 07:34:03;;;;;;;6.85;5.88;;;23.40;69.60;;;;;;5061782;28;20112;-28
2021/07/22 07:36:29;;;;;;;7.15;5.85;;;23.50;69.80;;;;;;5069728;28;20107;-27
2021/07/22 07:38:54;;;;;;;6.57;6.07;;;23.50;69.60;;;;;;5063946;28;20024;-30
2021/07/22 07:41:20;;;;;;;6.28;5.78;;;23.50;69.80;;;;;;5065741;28;20082;-32
2021/07/22 07:43:46;;;;;;;6.75;6.18;;;23.50;69.80;;;;;;5065973;28;20109;-29
2021/07/22 07:46:11;;;;;;;6.07;5.57;;;23.50;70.40;;;;;;5068119;28;20617;-31
2021/07/22 07:48:37;;;;;;;6.63;6.00;;;23.50;69.70;;;;;;5056307;28;20039;-27
2021/07/22 07:51:05;;;;;;;6.30;5.63;;;23.60;70.70;;;;;;5064910;28;20071;-26
2021/07/22 07:53:31;;;;;;;7.00;6.40;;;23.60;69.50;;;;;;5062417;28;20032;-30
2021/07/22 07:55:56;;;;;;;8.30;6.97;;;23.60;69.60;;;;;;5042512;28;20033;-28
2021/07/22 07:58:22;;;;;;;7.97;6.30;;;23.70;69.50;;;;;;5065633;28;20060;-30
2021/07/22 08:00:48;;;;;;;7.47;6.75;;;23.70;69.50;;;;;;5065552;28;20036;-27
2021/07/22 08:03:20;;;;;;;6.38;5.88;;;23.70;69.30;;;;;;5060157;28;20029;-27
2021/07/22 08:05:46;;;;;;;7.18;6.65;;;23.80;69.10;;;;;;5058005;28;20451;-29
2021/07/22 08:08:12;;;;;;;7.40;6.70;;;24.00;69.40;;;;;;5052237;28;20051;-29
2021/07/22 08:10:40;;;;;;;8.80;6.50;;;23.90;69.10;;;;;;5059837;28;20033;-29
2021/07/22 08:13:07;;;;;;;6.78;6.28;;;23.90;69.80;;;;;;5060606;28;20036;-29
2021/07/22 08:15:33;;;;;;;8.77;7.03;;;24.10;70.00;;;;;;5062932;28;20036;-31
2021/07/22 08:17:58;;;;;;;7.47;6.82;;;24.10;69.60;;;;;;5057251;28;20416;-32
2021/07/22 08:20:24;;;;;;;7.70;6.05;;;24.20;70.00;;;;;;5063925;28;20550;-33
2021/07/22 08:22:49;;;;;;;7.68;6.43;;;24.20;70.00;;;;;;5060361;28;20043;-29
2021/07/22 08:25:15;;;;;;;9.73;7.63;;;24.10;70.10;;;;;;5066816;28;20680;-32
2021/07/22 08:27:41;;;;;;;9.43;7.25;;;24.30;69.00;;;;;;5064667;28;20024;-30
2021/07/22 08:30:07;;;;;;;8.25;7.18;;;24.30;68.80;;;;;;5060699;28;20033;-35
2021/07/22 08:32:32;;;;;;;10.40;7.82;;;24.30;69.00;;;;;;5062147;28;20016;-28
2021/07/22 08:34:58;;;;;;;9.15;8.30;;;24.40;69.00;;;;;;5062598;28;20092;-30
2021/07/22 08:37:24;;;;;;;8.43;7.20;;;24.40;68.80;;;;;;5062863;28;20106;-30
2021/07/22 08:39:51;;;;;;;8.32;7.63;;;24.60;68.20;;;;;;5062165;28;20044;-30
2021/07/22 08:42:17;;;;;;;10.75;8.00;;;24.60;67.50;;;;;;5063946;28;20021;-27
2021/07/22 08:44:43;;;;;;;10.45;8.13;;;24.70;66.80;;;;;;5063596;28;20128;-27
2021/07/22 08:47:09;;;;;;;8.30;7.70;;;24.80;66.60;;;;;;5059999;28;20063;-30
2021/07/22 08:49:36;;;;;;;8.75;8.00;;;24.80;66.20;;;;;;5061811;28;20086;-34
2021/07/22 08:52:05;;;;;;;9.82;7.82;;;24.80;66.60;;;;;;5058050;28;20435;-29
2021/07/22 08:54:30;;;;;;;8.73;7.88;;;24.70;67.00;;;;;;5061213;28;20030;-29
2021/07/22 08:56:56;;;;;;;9.63;8.73;;;24.70;66.90;;;;;;5062884;28;20031;-31
2021/07/22 08:59:23;;;;;;;12.38;8.90;;;24.80;67.10;;;;;;5064299;28;20024;-29
2021/07/22 09:01:50;;;;;;;9.15;8.10;;;24.90;66.70;;;;;;5045291;28;20032;-30
2021/07/22 09:04:16;;;;;;;8.35;7.65;;;24.90;67.00;;;;;;5030025;28;20062;-33
2021/07/22 09:06:41;;;;;;;8.45;7.75;;;24.90;66.50;;;;;;5049232;28;20044;-33
2021/07/22 09:09:11;;;;;;;9.38;8.52;;;24.90;66.00;;;;;;5066737;28;20047;-35
2021/07/22 09:12:01;;;;;;;11.23;8.88;;;24.90;66.00;;;;;;5062839;28;20048;-39
2021/07/22 09:14:28;;;;;;;10.10;9.15;;;25.00;65.80;;;;;;5049290;28;20118;-43
2021/07/22 09:16:54;;;;;;;9.52;8.68;;;25.00;66.00;;;;;;5064477;28;21344;-33
2021/07/22 09:19:39;;;;;;;9.13;8.23;;;25.00;65.90;;;;;;5063297;28;20024;-36
2021/07/22 09:22:06;;;;;;;9.95;8.95;;;25.10;65.80;;;;;;5062782;28;20119;-35
2021/07/22 09:25:01;;;;;;;10.00;9.00;;;25.10;65.50;;;;;;5063423;28;20032;-36
2021/07/22 09:27:33;;;;;;;9.15;8.38;;;25.10;65.50;;;;;;5052463;28;20542;-29
2021/07/22 09:30:01;;;;;;;9.32;8.60;;;25.10;65.60;;;;;;5061657;28;20032;-40
2021/07/22 09:32:33;;;;;;;10.70;9.70;;;25.10;65.50;;;;;;5065183;28;20556;-28
2021/07/22 09:35:09;;;;;;;9.70;8.90;;;25.20;65.20;;;;;;5062816;28;20051;-30
2021/07/22 09:37:39;;;;;;;10.57;9.57;;;25.10;65.30;;;;;;5063246;28;20032;-30
2021/07/22 09:40:08;;;;;;;10.55;9.65;;;25.20;65.70;;;;;;5062431;28;20074;-31
2021/07/22 09:42:47;;;;;;;10.18;9.38;;;25.20;64.60;;;;;;5068348;28;20055;-27
2021/07/22 09:45:14;;;;;;;10.00;9.10;;;25.20;64.90;;;;;;5067178;28;20063;-28
2021/07/22 09:47:40;;;;;;;9.98;9.23;;;25.20;65.10;;;;;;5066053;28;20505;-29
2021/07/22 09:50:10;;;;;;;10.80;9.80;;;25.30;65.00;;;;;;5065172;28;20037;-32
2021/07/22 09:52:36;;;;;;;11.48;9.85;;;25.30;65.00;;;;;;5049492;28;20032;-33
2021/07/22 09:55:01;;;;;;;11.55;9.77;;;25.40;65.00;;;;;;5048400;28;20043;-28
2021/07/22 09:57:27;;;;;;;11.00;9.90;;;25.30;64.20;;;;;;5063706;28;20755;-32
2021/07/22 09:59:53;;;;;;;12.80;10.05;;;25.40;64.20;;;;;;5033913;28;20074;-27
2021/07/22 10:02:23;;;;;;;10.25;9.27;;;25.40;64.50;;;;;;5064218;28;20505;-34
2021/07/22 10:04:52;;;;;;;12.57;9.98;;;25.40;64.20;;;;;;5068291;28;20075;-40
2021/07/22 10:07:20;;;;;;;10.45;9.65;;;25.40;63.40;;;;;;5047957;28;21321;-29
2021/07/22 10:09:46;;;;;;;10.27;9.32;;;25.40;62.90;;;;;;5069199;28;20060;-33
2021/07/22 10:12:12;;;;;;;9.80;8.80;;;25.50;62.00;;;;;;5030462;28;20065;-39
2021/07/22 10:14:37;;;;;;;9.63;8.75;;;25.40;62.80;;;;;;5032649;28;20629;-32
2021/07/22 10:17:03;;;;;;;10.00;9.10;;;25.40;62.70;;;;;;5029689;28;20034;-37
2021/07/22 10:19:28;;;;;;;9.70;8.80;;;25.40;63.20;;;;;;5049987;28;20092;-30
2021/07/22 10:21:55;;;;;;;9.35;8.48;;;25.40;63.80;;;;;;5031652;28;20206;-28
2021/07/22 10:24:21;;;;;;;9.05;8.15;;;25.40;63.90;;;;;;5046486;28;20051;-30
2021/07/22 10:26:47;;;;;;;8.73;8.02;;;25.40;63.50;;;;;;5028682;28;20041;-35
2021/07/22 10:29:12;;;;;;;10.18;9.18;;;25.40;63.80;;;;;;5067322;28;20029;-33
2021/07/22 10:31:43;;;;;;;8.95;8.25;;;25.40;63.60;;;;;;5062767;28;20040;-38
2021/07/22 10:34:12;;;;;;;9.85;8.95;;;25.50;63.60;;;;;;5045324;28;20062;-37
2021/07/22 10:36:38;;;;;;;8.85;8.05;;;25.50;64.30;;;;;;5048570;28;20038;-39
2021/07/22 10:39:03;;;;;;;9.85;9.05;;;25.50;62.90;;;;;;5045668;28;20405;-38
2021/07/22 10:41:36;;;;;;;8.70;7.95;;;25.50;63.10;;;;;;5061707;28;20032;-27
2021/07/22 10:44:06;;;;;;;12.52;8.50;;;25.50;63.40;;;;;;5046137;28;20074;-35
2021/07/22 10:46:55;;;;;;;9.30;8.50;;;25.50;63.40;;;;;;5046229;28;20045;-33
2021/07/22 10:49:39;;;;;;;8.90;8.05;;;25.50;63.20;;;;;;5066175;28;20063;-33
2021/07/22 10:52:05;;;;;;;;;;;25.60;62.80;;;;;;5048281;28;20036;-31
2021/07/22 10:54:51;;;;;;;8.75;8.00;;;25.60;63.40;;;;;;5061308;28;19923;-28
2021/07/22 10:57:37;;;;;;;8.35;7.75;;;25.60;63.30;;;;;;5061783;28;20523;-35
2021/07/22 11:00:12;;;;;;;7.57;6.97;;;25.60;63.30;;;;;;5062717;28;20143;-38
2021/07/22 11:02:45;;;;;;;8.65;7.95;;;25.60;63.30;;;;;;5062656;28;20614;-38
2021/07/22 11:05:40;;;;;;;8.57;7.90;;;25.60;64.10;;;;;;5062692;28;20036;-26
2021/07/22 11:08:21;;;;;;;7.50;7.00;;;25.70;64.00;;;;;;4943216;28;20074;-31
2021/07/22 11:10:50;;;;;;;8.60;7.90;;;25.70;63.30;;;;;;4940407;28;20071;-45
2021/07/22 11:13:34;;;;;;;8.07;7.47;;;25.80;63.60;;;;;;4941726;28;20086;-40
2021/07/22 11:16:00;;;;;;;7.90;7.30;;;25.80;63.10;;;;;;4941131;28;20042;-29
2021/07/22 11:18:43;;;;;;;8.45;7.50;;;25.70;63.30;;;;;;4943940;28;20459;-39
2021/07/22 11:21:15;;;;;;;8.03;7.33;;;25.80;63.10;;;;;;4942085;28;20043;-30
2021/07/22 11:23:41;;;;;;;7.40;6.90;;;25.80;63.30;;;;;;4600655;28;9999823;-37
2021/07/22 11:26:06;;;;;;;8.80;7.93;;;25.80;63.20;;;;;;4943015;28;20094;-33
2021/07/22 11:28:32;;;;;;;7.95;7.30;;;25.80;63.30;;;;;;4943363;28;20031;-40
2021/07/22 11:30:58;;;;;;;9.05;8.35;;;25.80;63.30;;;;;;4941186;28;20061;-26
2021/07/22 11:33:24;;;;;;;8.25;7.55;;;25.80;63.60;;;;;;4941930;28;20077;-38
2021/07/22 11:35:56;;;;;;;7.90;7.30;;;25.80;63.60;;;;;;4939870;28;20214;-30
2021/07/22 11:38:22;;;;;;;8.48;7.78;;;25.80;63.70;;;;;;4942948;28;20178;-32
2021/07/22 11:40:48;;;;;;;7.55;7.05;;;25.80;63.70;;;;;;4938920;28;20035;-29
2021/07/22 11:43:30;;;;;;;7.55;7.03;;;25.80;63.60;;;;;;4939864;28;20034;-33
2021/07/22 11:45:56;;;;;;;7.63;6.93;;;25.80;63.80;;;;;;5055566;28;20130;-36
2021/07/22 11:48:23;;;;;;;8.23;7.53;;;25.80;63.80;;;;;;5045883;28;20437;-33
2021/07/22 11:51:04;;;;;;;7.93;7.32;;;25.90;63.80;;;;;;5059506;28;21584;-40
2021/07/22 11:53:30;;;;;;;7.30;6.80;;;25.90;64.20;;;;;;5057117;28;20024;-34
2021/07/22 11:55:58;;;;;;;8.07;7.53;;;25.90;64.00;;;;;;5062799;28;20047;-29
2021/07/22 11:58:24;;;;;;;7.93;7.43;;;25.90;64.20;;;;;;5041745;28;20055;-34
2021/07/22 12:00:50;;;;;;;8.30;7.50;;;25.90;64.00;;;;;;5061957;28;20119;-29
2021/07/22 12:03:21;;;;;;;7.88;7.32;;;25.90;64.10;;;;;;5065859;28;20500;-33
2021/07/22 12:05:46;;;;;;;7.22;6.72;;;25.90;64.50;;;;;;5047382;28;20164;-37
2021/07/22 12:08:19;;;;;;;7.40;6.90;;;26.00;64.10;;;;;;5047971;28;20161;-32
2021/07/22 12:10:46;;;;;;;7.32;6.80;;;26.00;63.80;;;;;;5065459;28;20059;-33
2021/07/22 12:13:12;;;;;;;8.02;7.50;;;26.00;64.20;;;;;;5063973;28;20059;-31
2021/07/22 12:15:38;;;;;;;7.97;7.40;;;25.90;64.40;;;;;;5067015;28;20111;-31
2021/07/22 12:18:04;;;;;;;7.32;6.80;;;26.00;64.30;;;;;;5065251;28;20523;-27
2021/07/22 12:20:30;;;;;;;6.75;6.32;;;26.00;64.20;;;;;;5065357;28;20492;-31
2021/07/22 12:22:56;;;;;;;7.72;7.22;;;26.00;64.30;;;;;;5065060;28;20115;-35
2021/07/22 12:25:23;;;;;;;7.55;7.05;;;26.10;64.40;;;;;;5065298;28;20963;-30
2021/07/22 12:27:57;;;;;;;8.23;7.53;;;26.10;64.40;;;;;;5067173;28;20090;-32
2021/07/22 12:30:23;;;;;;;7.43;6.88;;;26.10;64.40;;;;;;5065617;28;20095;-39
2021/07/22 12:32:50;;;;;;;7.55;7.15;;;26.10;64.40;;;;;;5064133;28;20028;-36
2021/07/22 12:35:41;;;;;;;7.20;6.60;;;26.20;64.40;;;;;;5062884;28;20131;-29
2021/07/22 12:38:16;;;;;;;7.07;6.53;;;26.20;64.50;;;;;;5056353;28;20024;-27
2021/07/22 12:40:44;;;;;;;7.47;7.05;;;26.20;64.10;;;;;;5054624;28;20470;-30
2021/07/22 12:43:16;;;;;;;7.25;6.75;;;26.20;64.00;;;;;;5052686;28;20116;-30
2021/07/22 12:45:43;;;;;;;7.28;6.68;;;26.20;64.00;;;;;;5055352;28;20037;-33